sensor_id;sensor_type;location;lat;lon;timestamp;pressure;altitude;pressure_sealevel;temperature;humidity
28927;BME280;16038;47.692;9.400;2023-09-30T00:00:22;97493.22;;;16.32;100.00
28927;BME280;16038;47.692;9.400;2023-09-30T00:02:47;97501.81;;;16.19;100.00
28927;BME280;16038;47.692;9.400;2023-09-30T00:05:13;97500.44;;;15.95;100.00
28927;BME280;16038;47.692;9.400;2023-09-30T00:07:40;97505.78;;;15.74;100.00
28927;BME280;16038;47.692;9.400;2023-09-30T00:10:06;97505.84;;;15.77;100.00
28927;BME280;16038;47.692;9.400;2023-09-30T00:12:31;97502.75;;;15.90;100.00
28927;BME280;16038;47.692;9.400;2023-09-30T00:14:57;97515.91;;;16.03;100.00
28927;BME280;16038;47.692;9.400;2023-09-30T00:17:23;97501.03;;;16.19;100.00
28927;BME280;16038;47.692;9.400;2023-09-30T00:19:49;97503.06;;;16.33;100.00
28927;BME280;16038;47.692;9.400;2023-09-30T00:22:14;97499.97;;;16.38;100.00
28927;BME280;16038;47.692;9.400;2023-09-30T00:24:39;97507.84;;;16.36;100.00
28927;BME280;16038;47.692;9.400;2023-09-30T00:27:05;97511.78;;;16.35;100.00
28927;BME280;16038;47.692;9.400;2023-09-30T00:29:30;97514.13;;;16.29;100.00
28927;BME280;16038;47.692;9.400;2023-09-30T00:31:56;97516.88;;;16.29;100.00
28927;BME280;16038;47.692;9.400;2023-09-30T00:34:21;97503.44;;;16.28;100.00
28927;BME280;16038;47.692;9.400;2023-09-30T00:36:47;97506.16;;;16.24;100.00
28927;BME280;16038;47.692;9.400;2023-09-30T00:39:12;97508.91;;;16.20;100.00
28927;BME280;16038;47.692;9.400;2023-09-30T00:41:39;97507.41;;;16.30;100.00
28927;BME280;16038;47.692;9.400;2023-09-30T00:44:04;97502.28;;;16.32;100.00
28927;BME280;16038;47.692;9.400;2023-09-30T00:46:31;97495.97;;;16.28;100.00
28927;BME280;16038;47.692;9.400;2023-09-30T00:48:58;97507.78;;;16.25;100.00
28927;BME280;16038;47.692;9.400;2023-09-30T00:51:24;97503.38;;;16.20;100.00
28927;BME280;16038;47.692;9.400;2023-09-30T00:53:55;97503.00;;;16.22;100.00
28927;BME280;16038;47.692;9.400;2023-09-30T00:56:23;97499.09;;;16.27;100.00
28927;BME280;16038;47.692;9.400;2023-09-30T00:58:49;97489.25;;;16.33;100.00
28927;BME280;16038;47.692;9.400;2023-09-30T01:01:19;97496.81;;;16.39;100.00
28927;BME280;16038;47.692;9.400;2023-09-30T01:03:48;97494.44;;;16.38;100.00
28927;BME280;16038;47.692;9.400;2023-09-30T01:06:13;97491.22;;;16.29;100.00
28927;BME280;16038;47.692;9.400;2023-09-30T01:08:39;97496.75;;;16.29;100.00
28927;BME280;16038;47.692;9.400;2023-09-30T01:11:05;97488.09;;;16.34;100.00
28927;BME280;16038;47.692;9.400;2023-09-30T01:13:34;97479.66;;;16.12;100.00
28927;BME280;16038;47.692;9.400;2023-09-30T01:16:09;97486.13;;;15.82;100.00
28927;BME280;16038;47.692;9.400;2023-09-30T01:18:35;97482.81;;;15.66;100.00
28927;BME280;16038;47.692;9.400;2023-09-30T01:21:05;97489.94;;;15.67;100.00
28927;BME280;16038;47.692;9.400;2023-09-30T01:23:32;97494.72;;;15.74;100.00
28927;BME280;16038;47.692;9.400;2023-09-30T01:26:10;97499.16;;;15.82;100.00
28927;BME280;16038;47.692;9.400;2023-09-30T01:28:37;97491.75;;;15.93;100.00
28927;BME280;16038;47.692;9.400;2023-09-30T01:31:03;97488.22;;;15.96;100.00
28927;BME280;16038;47.692;9.400;2023-09-30T01:33:30;97479.09;;;15.89;100.00
28927;BME280;16038;47.692;9.400;2023-09-30T01:35:56;97469.59;;;15.41;100.00
28927;BME280;16038;47.692;9.400;2023-09-30T01:38:21;97473.50;;;15.03;100.00
28927;BME280;16038;47.692;9.400;2023-09-30T01:40:47;97474.78;;;15.09;100.00
28927;BME280;16038;47.692;9.400;2023-09-30T01:43:13;97468.44;;;15.08;100.00
28927;BME280;16038;47.692;9.400;2023-09-30T01:45:40;97465.81;;;14.85;100.00
28927;BME280;16038;47.692;9.400;2023-09-30T01:48:06;97469.63;;;14.74;100.00
28927;BME280;16038;47.692;9.400;2023-09-30T01:50:32;97468.41;;;14.71;100.00
28927;BME280;16038;47.692;9.400;2023-09-30T01:52:57;97475.66;;;14.83;100.00
28927;BME280;16038;47.692;9.400;2023-09-30T01:55:23;97477.88;;;15.04;100.00
28927;BME280;16038;47.692;9.400;2023-09-30T01:57:48;97472.16;;;15.23;100.00
28927;BME280;16038;47.692;9.400;2023-09-30T02:00:14;97469.16;;;15.39;100.00
28927;BME280;16038;47.692;9.400;2023-09-30T02:02:39;97474.03;;;15.53;100.00
28927;BME280;16038;47.692;9.400;2023-09-30T02:05:05;97476.06;;;15.60;100.00
28927;BME280;16038;47.692;9.400;2023-09-30T02:07:34;97477.63;;;15.61;100.00
28927;BME280;16038;47.692;9.400;2023-09-30T02:10:00;97474.13;;;15.64;100.00
28927;BME280;16038;47.692;9.400;2023-09-30T02:12:27;97482.16;;;15.76;100.00
28927;BME280;16038;47.692;9.400;2023-09-30T02:14:53;97476.34;;;15.89;100.00
28927;BME280;16038;47.692;9.400;2023-09-30T02:17:19;97466.13;;;15.96;100.00
28927;BME280;16038;47.692;9.400;2023-09-30T02:19:44;97465.00;;;16.04;100.00
28927;BME280;16038;47.692;9.400;2023-09-30T02:22:10;97462.59;;;15.99;100.00
28927;BME280;16038;47.692;9.400;2023-09-30T02:24:37;97464.94;;;15.94;100.00
28927;BME280;16038;47.692;9.400;2023-09-30T02:27:03;97459.22;;;15.72;100.00
28927;BME280;16038;47.692;9.400;2023-09-30T02:29:28;97459.56;;;15.67;100.00
28927;BME280;16038;47.692;9.400;2023-09-30T02:31:54;97455.50;;;15.57;100.00
28927;BME280;16038;47.692;9.400;2023-09-30T02:34:20;97457.88;;;15.55;100.00
28927;BME280;16038;47.692;9.400;2023-09-30T02:36:45;97458.78;;;15.66;100.00
28927;BME280;16038;47.692;9.400;2023-09-30T02:39:11;97454.44;;;15.69;100.00
28927;BME280;16038;47.692;9.400;2023-09-30T02:41:36;97452.94;;;15.75;100.00
28927;BME280;16038;47.692;9.400;2023-09-30T02:44:03;97463.25;;;15.82;100.00
28927;BME280;16038;47.692;9.400;2023-09-30T02:46:29;97464.34;;;15.74;100.00
28927;BME280;16038;47.692;9.400;2023-09-30T02:48:55;97458.22;;;15.50;100.00
28927;BME280;16038;47.692;9.400;2023-09-30T02:51:20;97463.56;;;15.32;100.00
28927;BME280;16038;47.692;9.400;2023-09-30T02:53:45;97464.06;;;15.41;100.00
28927;BME280;16038;47.692;9.400;2023-09-30T02:56:13;97468.13;;;15.55;100.00
28927;BME280;16038;47.692;9.400;2023-09-30T02:58:39;97456.44;;;15.27;100.00
28927;BME280;16038;47.692;9.400;2023-09-30T03:01:05;97454.31;;;15.14;100.00
28927;BME280;16038;47.692;9.400;2023-09-30T03:03:32;97450.72;;;15.09;100.00
28927;BME280;16038;47.692;9.400;2023-09-30T03:05:59;97463.41;;;15.18;100.00
28927;BME280;16038;47.692;9.400;2023-09-30T03:08:26;97467.44;;;15.24;100.00
28927;BME280;16038;47.692;9.400;2023-09-30T03:10:51;97462.00;;;15.31;100.00
28927;BME280;16038;47.692;9.400;2023-09-30T03:13:17;97464.41;;;15.36;100.00
28927;BME280;16038;47.692;9.400;2023-09-30T03:15:44;97468.06;;;15.47;100.00
28927;BME280;16038;47.692;9.400;2023-09-30T03:18:09;97457.50;;;15.57;100.00
28927;BME280;16038;47.692;9.400;2023-09-30T03:20:36;97467.81;;;15.63;100.00
28927;BME280;16038;47.692;9.400;2023-09-30T03:23:05;97465.44;;;15.62;100.00
28927;BME280;16038;47.692;9.400;2023-09-30T03:25:31;97475.28;;;15.59;100.00
28927;BME280;16038;47.692;9.400;2023-09-30T03:27:57;97468.97;;;15.62;100.00
28927;BME280;16038;47.692;9.400;2023-09-30T03:30:23;97467.84;;;15.67;100.00
28927;BME280;16038;47.692;9.400;2023-09-30T03:32:49;97470.63;;;15.71;100.00
28927;BME280;16038;47.692;9.400;2023-09-30T03:35:15;97469.94;;;15.77;100.00
28927;BME280;16038;47.692;9.400;2023-09-30T03:37:43;97468.81;;;15.85;100.00
28927;BME280;16038;47.692;9.400;2023-09-30T03:40:09;97465.69;;;15.91;100.00
28927;BME280;16038;47.692;9.400;2023-09-30T03:42:45;97468.81;;;15.85;100.00
28927;BME280;16038;47.692;9.400;2023-09-30T03:45:11;97475.47;;;15.81;100.00
28927;BME280;16038;47.692;9.400;2023-09-30T03:47:39;97475.38;;;15.70;100.00
28927;BME280;16038;47.692;9.400;2023-09-30T03:50:05;97474.53;;;15.66;100.00
28927;BME280;16038;47.692;9.400;2023-09-30T03:52:37;97468.34;;;15.35;100.00
28927;BME280;16038;47.692;9.400;2023-09-30T03:55:04;97464.41;;;14.99;100.00
28927;BME280;16038;47.692;9.400;2023-09-30T03:57:33;97469.81;;;14.88;100.00
28927;BME280;16038;47.692;9.400;2023-09-30T04:00:00;97469.34;;;14.82;100.00
28927;BME280;16038;47.692;9.400;2023-09-30T04:02:25;97474.06;;;14.82;100.00
28927;BME280;16038;47.692;9.400;2023-09-30T04:04:51;97478.25;;;15.02;100.00
28927;BME280;16038;47.692;9.400;2023-09-30T04:07:19;97482.28;;;15.12;100.00
28927;BME280;16038;47.692;9.400;2023-09-30T04:09:44;97475.34;;;15.25;100.00
28927;BME280;16038;47.692;9.400;2023-09-30T04:12:09;97477.06;;;15.41;100.00
28927;BME280;16038;47.692;9.400;2023-09-30T04:14:35;97475.94;;;15.45;100.00
28927;BME280;16038;47.692;9.400;2023-09-30T04:17:01;97468.44;;;15.46;100.00
28927;BME280;16038;47.692;9.400;2023-09-30T04:19:26;97466.81;;;15.41;100.00
28927;BME280;16038;47.692;9.400;2023-09-30T04:21:51;97461.34;;;15.45;100.00
28927;BME280;16038;47.692;9.400;2023-09-30T04:24:17;97460.63;;;15.55;100.00
28927;BME280;16038;47.692;9.400;2023-09-30T04:26:45;97459.94;;;15.65;100.00
28927;BME280;16038;47.692;9.400;2023-09-30T04:29:11;97454.41;;;15.65;100.00
28927;BME280;16038;47.692;9.400;2023-09-30T04:31:37;97440.50;;;15.55;100.00
28927;BME280;16038;47.692;9.400;2023-09-30T04:34:04;97453.19;;;15.59;100.00
28927;BME280;16038;47.692;9.400;2023-09-30T04:36:30;97452.00;;;15.60;100.00
28927;BME280;16038;47.692;9.400;2023-09-30T04:38:56;97447.06;;;15.39;100.00
28927;BME280;16038;47.692;9.400;2023-09-30T04:41:21;97455.91;;;15.15;100.00
28927;BME280;16038;47.692;9.400;2023-09-30T04:43:46;97456.50;;;14.63;100.00
28927;BME280;16038;47.692;9.400;2023-09-30T04:46:13;97452.16;;;14.62;100.00
28927;BME280;16038;47.692;9.400;2023-09-30T04:48:39;97465.16;;;14.62;100.00
28927;BME280;16038;47.692;9.400;2023-09-30T04:51:08;97472.19;;;14.89;100.00
28927;BME280;16038;47.692;9.400;2023-09-30T04:53:34;97480.06;;;14.87;100.00
28927;BME280;16038;47.692;9.400;2023-09-30T04:55:59;97484.00;;;14.90;100.00
28927;BME280;16038;47.692;9.400;2023-09-30T04:58:26;97496.78;;;15.02;100.00
28927;BME280;16038;47.692;9.400;2023-09-30T05:00:52;97495.28;;;15.12;100.00
28927;BME280;16038;47.692;9.400;2023-09-30T05:03:17;97493.03;;;15.21;100.00
28927;BME280;16038;47.692;9.400;2023-09-30T05:05:44;97479.34;;;15.32;100.00
28927;BME280;16038;47.692;9.400;2023-09-30T05:08:09;97481.34;;;15.35;100.00
28927;BME280;16038;47.692;9.400;2023-09-30T05:10:36;97480.88;;;15.25;100.00
28927;BME280;16038;47.692;9.400;2023-09-30T05:13:02;97474.44;;;15.18;100.00
28927;BME280;16038;47.692;9.400;2023-09-30T05:15:28;97482.78;;;15.21;100.00
28927;BME280;16038;47.692;9.400;2023-09-30T05:17:57;97491.19;;;15.36;100.00
28927;BME280;16038;47.692;9.400;2023-09-30T05:20:22;97494.44;;;15.41;100.00
28927;BME280;16038;47.692;9.400;2023-09-30T05:22:51;97498.38;;;15.44;100.00
28927;BME280;16038;47.692;9.400;2023-09-30T05:25:16;97499.19;;;15.44;100.00
28927;BME280;16038;47.692;9.400;2023-09-30T05:27:43;97510.31;;;15.55;100.00
28927;BME280;16038;47.692;9.400;2023-09-30T05:30:09;97515.47;;;15.57;100.00
28927;BME280;16038;47.692;9.400;2023-09-30T05:32:36;97517.09;;;15.61;100.00
28927;BME280;16038;47.692;9.400;2023-09-30T05:35:05;97511.13;;;15.56;100.00
28927;BME280;16038;47.692;9.400;2023-09-30T05:37:31;97510.19;;;15.41;100.00
28927;BME280;16038;47.692;9.400;2023-09-30T05:39:56;97501.75;;;15.26;100.00
28927;BME280;16038;47.692;9.400;2023-09-30T05:42:22;97504.50;;;15.26;100.00
28927;BME280;16038;47.692;9.400;2023-09-30T05:44:47;97511.38;;;15.06;100.00
28927;BME280;16038;47.692;9.400;2023-09-30T05:47:13;97510.88;;;14.97;100.00
28927;BME280;16038;47.692;9.400;2023-09-30T05:49:40;97509.34;;;14.99;100.00
28927;BME280;16038;47.692;9.400;2023-09-30T05:52:06;97502.44;;;14.82;100.00
28927;BME280;16038;47.692;9.400;2023-09-30T05:54:32;97504.34;;;14.48;100.00
28927;BME280;16038;47.692;9.400;2023-09-30T05:56:57;97506.63;;;14.42;100.00
28927;BME280;16038;47.692;9.400;2023-09-30T05:59:23;97500.34;;;14.45;100.00
28927;BME280;16038;47.692;9.400;2023-09-30T06:01:50;97498.09;;;14.24;100.00
28927;BME280;16038;47.692;9.400;2023-09-30T06:04:15;97507.63;;;14.30;100.00
28927;BME280;16038;47.692;9.400;2023-09-30T06:06:41;97522.81;;;14.47;100.00
28927;BME280;16038;47.692;9.400;2023-09-30T06:09:08;97528.69;;;14.72;100.00
28927;BME280;16038;47.692;9.400;2023-09-30T06:11:33;97530.91;;;14.90;100.00
28927;BME280;16038;47.692;9.400;2023-09-30T06:13:59;97530.69;;;15.06;100.00
28927;BME280;16038;47.692;9.400;2023-09-30T06:16:26;97535.59;;;15.20;100.00
28927;BME280;16038;47.692;9.400;2023-09-30T06:18:52;97540.38;;;15.26;100.00
28927;BME280;16038;47.692;9.400;2023-09-30T06:21:19;97540.06;;;15.32;100.00
28927;BME280;16038;47.692;9.400;2023-09-30T06:23:47;97547.31;;;15.47;100.00
28927;BME280;16038;47.692;9.400;2023-09-30T06:26:13;97548.25;;;15.62;100.00
28927;BME280;16038;47.692;9.400;2023-09-30T06:28:38;97548.03;;;15.74;100.00
28927;BME280;16038;47.692;9.400;2023-09-30T06:31:09;97544.56;;;15.88;100.00
28927;BME280;16038;47.692;9.400;2023-09-30T06:33:36;97546.03;;;15.75;100.00
28927;BME280;16038;47.692;9.400;2023-09-30T06:36:08;97531.97;;;15.16;100.00
28927;BME280;16038;47.692;9.400;2023-09-30T06:38:33;97533.03;;;15.04;100.00
28927;BME280;16038;47.692;9.400;2023-09-30T06:40:59;97536.47;;;15.27;100.00
28927;BME280;16038;47.692;9.400;2023-09-30T06:43:25;97529.72;;;15.25;100.00
28927;BME280;16038;47.692;9.400;2023-09-30T06:45:50;97526.84;;;15.14;100.00
28927;BME280;16038;47.692;9.400;2023-09-30T06:48:16;97537.41;;;15.42;100.00
28927;BME280;16038;47.692;9.400;2023-09-30T06:50:46;97555.78;;;15.65;100.00
28927;BME280;16038;47.692;9.400;2023-09-30T06:53:17;97555.84;;;16.13;100.00
28927;BME280;16038;47.692;9.400;2023-09-30T06:55:44;97549.38;;;17.16;100.00
28927;BME280;16038;47.692;9.400;2023-09-30T06:58:10;97555.94;;;18.25;100.00
28927;BME280;16038;47.692;9.400;2023-09-30T07:00:36;97579.66;;;18.69;100.00
28927;BME280;16038;47.692;9.400;2023-09-30T07:03:02;97591.09;;;19.14;100.00
28927;BME280;16038;47.692;9.400;2023-09-30T07:05:28;97589.06;;;19.22;100.00
28927;BME280;16038;47.692;9.400;2023-09-30T07:07:54;97581.13;;;19.24;100.00
28927;BME280;16038;47.692;9.400;2023-09-30T07:10:19;97566.63;;;18.51;100.00
28927;BME280;16038;47.692;9.400;2023-09-30T07:12:45;97582.78;;;17.67;100.00
28927;BME280;16038;47.692;9.400;2023-09-30T07:15:10;97572.16;;;16.85;100.00
28927;BME280;16038;47.692;9.400;2023-09-30T07:17:36;97575.94;;;16.58;100.00
28927;BME280;16038;47.692;9.400;2023-09-30T07:20:02;97587.28;;;17.02;100.00
28927;BME280;16038;47.692;9.400;2023-09-30T07:22:30;97585.44;;;17.34;100.00
28927;BME280;16038;47.692;9.400;2023-09-30T07:24:56;97594.56;;;17.42;100.00
28927;BME280;16038;47.692;9.400;2023-09-30T07:27:23;97601.38;;;17.70;100.00
28927;BME280;16038;47.692;9.400;2023-09-30T07:29:49;97608.63;;;18.21;100.00
28927;BME280;16038;47.692;9.400;2023-09-30T07:32:14;97607.41;;;18.58;100.00
28927;BME280;16038;47.692;9.400;2023-09-30T07:34:40;97614.94;;;18.72;100.00
28927;BME280;16038;47.692;9.400;2023-09-30T07:37:05;97614.00;;;17.56;100.00
28927;BME280;16038;47.692;9.400;2023-09-30T07:39:31;97622.16;;;17.20;100.00
28927;BME280;16038;47.692;9.400;2023-09-30T07:41:56;97621.06;;;16.73;100.00
28927;BME280;16038;47.692;9.400;2023-09-30T07:44:22;97628.59;;;16.73;100.00
28927;BME280;16038;47.692;9.400;2023-09-30T07:46:47;97621.13;;;16.80;100.00
28927;BME280;16038;47.692;9.400;2023-09-30T07:49:13;97623.88;;;16.77;100.00
28927;BME280;16038;47.692;9.400;2023-09-30T07:51:38;97628.91;;;16.64;100.00
28927;BME280;16038;47.692;9.400;2023-09-30T07:54:06;97625.66;;;16.51;100.00
28927;BME280;16038;47.692;9.400;2023-09-30T07:56:32;97621.44;;;16.68;100.00
28927;BME280;16038;47.692;9.400;2023-09-30T07:58:57;97611.09;;;16.58;100.00
28927;BME280;16038;47.692;9.400;2023-09-30T08:01:22;97618.75;;;16.79;100.00
28927;BME280;16038;47.692;9.400;2023-09-30T08:03:48;97622.28;;;16.79;100.00
28927;BME280;16038;47.692;9.400;2023-09-30T08:06:14;97615.66;;;16.88;100.00
28927;BME280;16038;47.692;9.400;2023-09-30T08:08:39;97616.03;;;16.86;100.00
28927;BME280;16038;47.692;9.400;2023-09-30T08:11:05;97613.38;;;17.04;100.00
28927;BME280;16038;47.692;9.400;2023-09-30T08:13:32;97619.75;;;17.15;100.00
28927;BME280;16038;47.692;9.400;2023-09-30T08:15:58;97618.97;;;17.15;100.00
28927;BME280;16038;47.692;9.400;2023-09-30T08:18:24;97623.00;;;17.35;100.00
28927;BME280;16038;47.692;9.400;2023-09-30T08:20:50;97628.63;;;17.53;100.00
28927;BME280;16038;47.692;9.400;2023-09-30T08:23:15;97636.47;;;17.33;100.00
28927;BME280;16038;47.692;9.400;2023-09-30T08:25:40;97629.72;;;17.31;100.00
28927;BME280;16038;47.692;9.400;2023-09-30T08:28:06;97631.59;;;17.09;100.00
28927;BME280;16038;47.692;9.400;2023-09-30T08:30:35;97633.47;;;16.94;100.00
28927;BME280;16038;47.692;9.400;2023-09-30T08:33:01;97611.38;;;17.01;100.00
28927;BME280;16038;47.692;9.400;2023-09-30T08:35:35;97619.03;;;17.29;100.00
28927;BME280;16038;47.692;9.400;2023-09-30T08:38:00;97621.69;;;18.06;100.00
28927;BME280;16038;47.692;9.400;2023-09-30T08:40:27;97628.44;;;18.59;100.00
28927;BME280;16038;47.692;9.400;2023-09-30T08:42:53;97622.81;;;17.91;100.00
28927;BME280;16038;47.692;9.400;2023-09-30T08:45:19;97629.19;;;18.09;100.00
28927;BME280;16038;47.692;9.400;2023-09-30T08:47:45;97631.97;;;18.27;100.00
28927;BME280;16038;47.692;9.400;2023-09-30T08:50:12;97640.69;;;18.98;100.00
28927;BME280;16038;47.692;9.400;2023-09-30T08:52:43;97647.22;;;19.65;98.19
28927;BME280;16038;47.692;9.400;2023-09-30T08:55:10;97638.63;;;20.15;95.69
28927;BME280;16038;47.692;9.400;2023-09-30T08:57:40;97626.44;;;19.95;94.87
28927;BME280;16038;47.692;9.400;2023-09-30T09:00:07;97610.09;;;20.04;93.83
28927;BME280;16038;47.692;9.400;2023-09-30T09:02:35;97600.22;;;19.04;100.00
28927;BME280;16038;47.692;9.400;2023-09-30T09:05:02;97603.63;;;19.47;99.77
28927;BME280;16038;47.692;9.400;2023-09-30T09:07:28;97598.31;;;19.82;97.79
28927;BME280;16038;47.692;9.400;2023-09-30T09:10:04;97603.97;;;20.27;92.15
28927;BME280;16038;47.692;9.400;2023-09-30T09:12:30;97608.19;;;19.94;91.42
28927;BME280;16038;47.692;9.400;2023-09-30T09:14:56;97610.28;;;20.35;93.05
28927;BME280;16038;47.692;9.400;2023-09-30T09:17:21;97609.56;;;19.49;96.81
28927;BME280;16038;47.692;9.400;2023-09-30T09:19:59;97614.31;;;19.56;96.51
28927;BME280;16038;47.692;9.400;2023-09-30T09:22:37;97598.09;;;19.47;100.00
28927;BME280;16038;47.692;9.400;2023-09-30T09:25:03;97600.50;;;19.38;98.64
28927;BME280;16038;47.692;9.400;2023-09-30T09:27:33;97603.66;;;19.44;97.82
28927;BME280;16038;47.692;9.400;2023-09-30T09:30:17;97607.75;;;19.99;93.40
28927;BME280;16038;47.692;9.400;2023-09-30T09:35:22;97619.69;;;19.96;92.10
28927;BME280;16038;47.692;9.400;2023-09-30T09:37:57;97610.41;;;19.43;96.85
28927;BME280;16038;47.692;9.400;2023-09-30T09:40:23;97614.16;;;19.92;91.19
28927;BME280;16038;47.692;9.400;2023-09-30T09:42:52;97612.16;;;19.93;91.36
28927;BME280;16038;47.692;9.400;2023-09-30T09:45:24;97616.69;;;20.28;90.29
28927;BME280;16038;47.692;9.400;2023-09-30T09:47:50;97625.31;;;20.90;81.98
28927;BME280;16038;47.692;9.400;2023-09-30T09:50:17;97619.66;;;21.00;84.24
28927;BME280;16038;47.692;9.400;2023-09-30T09:52:44;97611.28;;;20.62;85.24
28927;BME280;16038;47.692;9.400;2023-09-30T09:55:11;97618.97;;;19.84;91.01
28927;BME280;16038;47.692;9.400;2023-09-30T09:57:37;97615.94;;;19.50;93.75
28927;BME280;16038;47.692;9.400;2023-09-30T10:00:03;97609.63;;;19.35;93.97
28927;BME280;16038;47.692;9.400;2023-09-30T10:02:34;97614.91;;;19.04;96.51
28927;BME280;16038;47.692;9.400;2023-09-30T10:05:02;97612.66;;;19.70;92.48
28927;BME280;16038;47.692;9.400;2023-09-30T10:07:33;97609.47;;;19.71;91.00
28927;BME280;16038;47.692;9.400;2023-09-30T10:10:01;97617.16;;;20.19;86.88
28927;BME280;16038;47.692;9.400;2023-09-30T10:12:38;97618.47;;;20.00;85.78
28927;BME280;16038;47.692;9.400;2023-09-30T10:18:02;97614.22;;;21.24;78.63
28927;BME280;16038;47.692;9.400;2023-09-30T10:20:38;97614.69;;;23.29;66.58
28927;BME280;16038;47.692;9.400;2023-09-30T10:23:28;97600.50;;;22.53;69.39
28927;BME280;16038;47.692;9.400;2023-09-30T10:28:46;97578.44;;;21.84;74.19
28927;BME280;16038;47.692;9.400;2023-09-30T10:36:35;97563.06;;;22.50;71.47
28927;BME280;16038;47.692;9.400;2023-09-30T10:39:03;97558.66;;;22.53;70.35
28927;BME280;16038;47.692;9.400;2023-09-30T10:46:47;97576.75;;;21.63;71.57
28927;BME280;16038;47.692;9.400;2023-09-30T10:49:29;97591.44;;;22.45;67.12
28927;BME280;16038;47.692;9.400;2023-09-30T10:51:57;97585.00;;;22.25;68.31
28927;BME280;16038;47.692;9.400;2023-09-30T10:54:27;97586.81;;;23.46;64.61
28927;BME280;16038;47.692;9.400;2023-09-30T10:56:53;97578.66;;;22.71;64.11
28927;BME280;16038;47.692;9.400;2023-09-30T10:59:20;97569.56;;;23.11;62.76
28927;BME280;16038;47.692;9.400;2023-09-30T11:01:45;97568.13;;;22.79;64.82
28927;BME280;16038;47.692;9.400;2023-09-30T11:04:11;97567.19;;;21.91;69.74
28927;BME280;16038;47.692;9.400;2023-09-30T11:06:40;97565.03;;;23.17;65.25
28927;BME280;16038;47.692;9.400;2023-09-30T11:09:06;97567.03;;;24.75;57.64
28927;BME280;16038;47.692;9.400;2023-09-30T11:11:45;97557.97;;;23.13;62.88
28927;BME280;16038;47.692;9.400;2023-09-30T11:14:24;97554.03;;;21.92;65.72
28927;BME280;16038;47.692;9.400;2023-09-30T11:16:52;97555.69;;;23.04;62.85
28927;BME280;16038;47.692;9.400;2023-09-30T11:19:18;97552.78;;;23.31;61.01
28927;BME280;16038;47.692;9.400;2023-09-30T11:21:51;97542.34;;;22.71;62.83
28927;BME280;16038;47.692;9.400;2023-09-30T11:24:18;97546.34;;;22.70;63.13
28927;BME280;16038;47.692;9.400;2023-09-30T11:26:44;97545.56;;;23.34;60.75
28927;BME280;16038;47.692;9.400;2023-09-30T11:31:38;97538.75;;;21.46;68.82
28927;BME280;16038;47.692;9.400;2023-09-30T11:34:04;97538.44;;;22.18;66.78
28927;BME280;16038;47.692;9.400;2023-09-30T11:36:30;97549.38;;;22.80;63.02
28927;BME280;16038;47.692;9.400;2023-09-30T11:38:56;97542.81;;;23.10;60.68
28927;BME280;16038;47.692;9.400;2023-09-30T11:41:22;97556.28;;;23.92;60.05
28927;BME280;16038;47.692;9.400;2023-09-30T11:46:31;97553.50;;;24.24;57.60
28927;BME280;16038;47.692;9.400;2023-09-30T11:49:03;97542.81;;;24.19;57.19
28927;BME280;16038;47.692;9.400;2023-09-30T11:51:43;97540.66;;;23.74;58.54
28927;BME280;16038;47.692;9.400;2023-09-30T11:54:11;97546.31;;;24.07;58.92
28927;BME280;16038;47.692;9.400;2023-09-30T11:56:37;97543.03;;;22.32;64.48
28927;BME280;16038;47.692;9.400;2023-09-30T11:59:03;97537.38;;;22.12;64.97
28927;BME280;16038;47.692;9.400;2023-09-30T12:01:30;97537.50;;;22.52;61.56
28927;BME280;16038;47.692;9.400;2023-09-30T12:03:57;97539.16;;;22.26;62.25
28927;BME280;16038;47.692;9.400;2023-09-30T12:06:23;97534.41;;;21.41;66.53
28927;BME280;16038;47.692;9.400;2023-09-30T12:08:48;97522.63;;;21.88;69.00
28927;BME280;16038;47.692;9.400;2023-09-30T12:11:19;97520.38;;;21.52;69.85
28927;BME280;16038;47.692;9.400;2023-09-30T12:13:45;97519.53;;;20.90;68.54
28927;BME280;16038;47.692;9.400;2023-09-30T12:16:14;97510.94;;;21.08;69.06
28927;BME280;16038;47.692;9.400;2023-09-30T12:18:40;97517.09;;;21.57;66.96
28927;BME280;16038;47.692;9.400;2023-09-30T12:21:10;97505.66;;;21.48;66.59
28927;BME280;16038;47.692;9.400;2023-09-30T12:23:39;97497.03;;;21.93;65.49
28927;BME280;16038;47.692;9.400;2023-09-30T12:26:05;97500.34;;;21.26;69.43
28927;BME280;16038;47.692;9.400;2023-09-30T12:28:32;97502.59;;;21.38;66.21
28927;BME280;16038;47.692;9.400;2023-09-30T12:30:58;97490.59;;;21.45;68.13
28927;BME280;16038;47.692;9.400;2023-09-30T12:33:24;97488.44;;;20.95;69.05
28927;BME280;16038;47.692;9.400;2023-09-30T12:35:49;97493.13;;;21.02;70.54
28927;BME280;16038;47.692;9.400;2023-09-30T12:38:16;97497.03;;;21.93;66.76
28927;BME280;16038;47.692;9.400;2023-09-30T12:40:42;97498.59;;;22.85;63.97
28927;BME280;16038;47.692;9.400;2023-09-30T12:43:09;97508.25;;;23.40;60.01
28927;BME280;16038;47.692;9.400;2023-09-30T12:45:34;97496.28;;;22.60;62.13
28927;BME280;16038;47.692;9.400;2023-09-30T12:48:00;97503.84;;;22.83;60.19
28927;BME280;16038;47.692;9.400;2023-09-30T12:50:25;97495.06;;;21.66;60.46
28927;BME280;16038;47.692;9.400;2023-09-30T12:52:50;97487.03;;;21.10;64.94
28927;BME280;16038;47.692;9.400;2023-09-30T12:55:16;97484.50;;;22.05;60.84
28927;BME280;16038;47.692;9.400;2023-09-30T12:57:41;97482.59;;;21.16;64.50
28927;BME280;16038;47.692;9.400;2023-09-30T13:00:07;97478.22;;;21.15;65.42
28927;BME280;16038;47.692;9.400;2023-09-30T13:02:35;97475.78;;;21.17;66.07
28927;BME280;16038;47.692;9.400;2023-09-30T13:05:00;97484.38;;;21.03;65.92
28927;BME280;16038;47.692;9.400;2023-09-30T13:07:26;97487.75;;;21.18;64.98
28927;BME280;16038;47.692;9.400;2023-09-30T13:09:51;97478.66;;;21.72;64.61
28927;BME280;16038;47.692;9.400;2023-09-30T13:12:17;97476.16;;;21.77;62.81
28927;BME280;16038;47.692;9.400;2023-09-30T13:14:42;97480.53;;;21.79;61.73